Αρχική σελίδα
METAR-TAF:

METAR-TAF

Αεροδρόμια :

Jim Kelly Field

Lexington, Νεμπράσκα, Ηνωμένες Πολιτείες Αμερικής

γεωγραφικό πλάτος: 40-47-28N, γεωγραφικό μήκος: 099-46-38W, υψόμετρο: 736 μ

Παρών καιρός

Η αναφορά έγινε 21 λεπτά πριν, στις 00:35 UTC
Άνεμος 3 kt από ΝA
Θερμοκρασία 17°C
Υγρασία 42%
Πίεση 1016 hPa
Ορατότητα: 16.1 χλμ
Καθαρός ουρανός

METAR: KLXN 220035Z AUTO 14003KT 10SM CLR 17/04 A2999 RMK AO2 T01680038

Χρόνος: 19:56 (00:56 UTC)


TAF: λείπει

Μετεωρολογικές αναφορές και προγνώσεις για περισσότερα από 4000 αεροδρόμια (δελτία METAR και TAF).

Οι διαθέσιμοι σταθμοί απεικονίζονται στο χάρτη με κίτρινες και κόκκινες κουκκίδες.

Μετακινήστε το ποντίκι πάνω από τις κουκκίδες για να δείτε το όνομα του σταθμού.

Στη συνέχεια, κάντε κλικ για να δείτε τις μετεωρολογικές αναφορές και τις προγνώσεις καιρού.

Για να αλλάξετε το χάρτη: κάντε κλικ στα πράσινα κουμπιά με τον μαύρο σταυρό για να ζουμάρετε, στο πράσινο κουμπί με την παύλα για να αφαιρέσετε το ζουμ ή στα πράσινα βέλη για να αντιπαραβάλλετε χάρτες.


METAR-TAF: